createdAt,value
2022-08-03T00:01:27.186Z,19.00
2022-08-03T00:03:53.816Z,19.00
2022-08-03T00:06:20.462Z,19.00
2022-08-03T00:08:47.116Z,18.90
2022-08-03T00:11:13.846Z,18.90
2022-08-03T00:13:40.697Z,18.90
2022-08-03T00:16:07.487Z,18.80
2022-08-03T00:18:34.167Z,18.80
2022-08-03T00:21:00.852Z,18.80
2022-08-03T00:23:31.731Z,18.80
2022-08-03T00:26:14.305Z,18.80
2022-08-03T00:28:41.199Z,18.70
2022-08-03T00:31:08.180Z,18.70
2022-08-03T00:33:57.912Z,18.70
2022-08-03T00:36:27.256Z,18.60
2022-08-03T00:38:54.193Z,18.60
2022-08-03T00:41:21.064Z,18.50
2022-08-03T00:43:47.897Z,18.50
2022-08-03T00:46:20.532Z,18.40
2022-08-03T00:48:49.530Z,18.40
2022-08-03T00:51:16.419Z,18.30
2022-08-03T00:53:43.344Z,18.30
2022-08-03T00:56:13.057Z,18.30
2022-08-03T00:58:39.685Z,18.30
2022-08-03T01:01:07.153Z,18.30
2022-08-03T01:03:34.397Z,18.20
2022-08-03T01:06:18.790Z,18.30
2022-08-03T01:08:55.775Z,18.30
2022-08-03T01:11:59.973Z,18.30
2022-08-03T01:14:53.628Z,18.20
2022-08-03T01:17:29.321Z,18.30
2022-08-03T01:20:11.593Z,18.30
2022-08-03T01:22:54.450Z,18.20
2022-08-03T01:25:42.803Z,18.20
2022-08-03T01:28:38.888Z,18.20
2022-08-03T01:31:08.352Z,18.10
2022-08-03T01:33:41.937Z,18.10
2022-08-03T01:36:14.491Z,18.10
2022-08-03T01:38:55.262Z,18.00
2022-08-03T01:41:29.040Z,18.10
2022-08-03T01:44:30.250Z,18.10
2022-08-03T01:46:49.118Z,18.10
2022-08-03T01:49:17.147Z,18.00
2022-08-03T01:51:58.580Z,18.00
2022-08-03T01:54:34.670Z,18.00
2022-08-03T01:57:02.770Z,18.00
2022-08-03T01:59:30.561Z,17.90
2022-08-03T02:02:27.762Z,17.90
2022-08-03T02:04:47.689Z,17.90
2022-08-03T02:07:16.139Z,17.90
2022-08-03T02:09:46.818Z,17.80
2022-08-03T02:12:15.170Z,17.80
2022-08-03T02:14:44.378Z,17.80
2022-08-03T02:17:12.420Z,17.80
2022-08-03T02:19:40.596Z,17.70
2022-08-03T02:22:10.779Z,17.70
2022-08-03T02:24:37.595Z,17.70
2022-08-03T02:27:10.141Z,17.70
2022-08-03T02:29:40.965Z,17.70
2022-08-03T02:32:14.232Z,17.60
2022-08-03T02:34:44.454Z,17.60
2022-08-03T02:37:13.428Z,17.60
2022-08-03T02:39:41.874Z,17.50
2022-08-03T02:42:12.764Z,17.60
2022-08-03T02:44:43.679Z,17.50
2022-08-03T02:47:12.416Z,17.50
2022-08-03T02:49:50.388Z,17.50
2022-08-03T02:52:23.595Z,17.50
2022-08-03T02:54:54.856Z,17.50
2022-08-03T02:57:23.171Z,17.40
2022-08-03T02:59:51.771Z,17.40
2022-08-03T03:02:19.741Z,17.50
2022-08-03T03:05:54.450Z,17.40
2022-08-03T03:07:46.885Z,17.40
2022-08-03T03:10:23.037Z,17.40
2022-08-03T03:12:56.363Z,17.30
2022-08-03T03:15:25.894Z,17.30
2022-08-03T03:17:53.609Z,17.30
2022-08-03T03:20:29.017Z,17.30
2022-08-03T03:23:00.000Z,17.20
2022-08-03T03:25:28.085Z,17.10
2022-08-03T03:27:55.267Z,17.10
2022-08-03T03:30:24.977Z,17.10
2022-08-03T03:32:52.675Z,17.10
2022-08-03T03:35:19.593Z,17.10
2022-08-03T03:37:46.638Z,17.10
2022-08-03T03:40:14.444Z,17.10
2022-08-03T03:42:41.604Z,17.10
2022-08-03T03:45:09.100Z,17.10
2022-08-03T03:47:36.677Z,17.10
2022-08-03T03:50:07.085Z,17.10
2022-08-03T03:52:34.519Z,17.10
2022-08-03T03:55:01.759Z,17.10
2022-08-03T03:57:29.371Z,17.10
2022-08-03T03:59:56.175Z,17.10
2022-08-03T04:02:22.877Z,17.10
2022-08-03T04:05:08.083Z,17.10
2022-08-03T04:08:12.550Z,17.20
2022-08-03T04:11:00.260Z,17.10
2022-08-03T04:13:35.203Z,17.20
2022-08-03T04:16:03.038Z,17.30
2022-08-03T04:18:31.670Z,17.20
2022-08-03T04:21:03.634Z,17.30
2022-08-03T04:23:34.622Z,17.30
2022-08-03T04:26:03.405Z,17.30
2022-08-03T04:28:32.312Z,17.30
2022-08-03T04:31:04.437Z,17.30
2022-08-03T04:33:36.998Z,17.40
2022-08-03T04:36:07.352Z,17.40
2022-08-03T04:38:40.479Z,17.50
2022-08-03T04:41:07.979Z,17.50
2022-08-03T04:43:35.186Z,17.60
2022-08-03T04:46:02.835Z,17.70
2022-08-03T04:48:29.767Z,17.80
2022-08-03T04:50:56.993Z,17.90
2022-08-03T04:53:23.774Z,18.00
2022-08-03T04:55:50.438Z,18.10
2022-08-03T04:58:17.196Z,18.20
2022-08-03T05:00:45.379Z,18.30
2022-08-03T05:03:23.534Z,18.40
2022-08-03T05:05:51.842Z,18.50
2022-08-03T05:08:20.761Z,18.60
2022-08-03T05:10:55.652Z,18.70
2022-08-03T05:13:25.810Z,18.90
2022-08-03T05:15:52.537Z,19.00
2022-08-03T05:18:19.375Z,19.10
2022-08-03T05:20:46.041Z,19.30
2022-08-03T05:23:12.741Z,19.40
2022-08-03T05:25:39.556Z,19.50
2022-08-03T05:28:06.444Z,19.70
2022-08-03T05:30:34.524Z,19.80
2022-08-03T05:33:02.945Z,19.90
2022-08-03T05:36:02.142Z,20.00
2022-08-03T05:38:20.881Z,20.20
2022-08-03T05:40:57.371Z,20.30
2022-08-03T05:43:41.813Z,20.40
2022-08-03T05:46:11.757Z,20.60
2022-08-03T05:48:39.696Z,20.70
2022-08-03T05:51:07.636Z,20.80
2022-08-03T05:53:34.861Z,21.00
2022-08-03T05:56:15.328Z,21.10
2022-08-03T05:58:47.201Z,21.30
2022-08-03T06:01:15.605Z,21.40
2022-08-03T06:03:42.526Z,21.50
2022-08-03T06:06:09.258Z,21.50
2022-08-03T06:08:36.063Z,21.70
2022-08-03T06:11:03.577Z,21.80
2022-08-03T06:13:30.218Z,21.90
2022-08-03T06:15:56.888Z,22.00
2022-08-03T06:18:24.595Z,22.20
2022-08-03T06:20:52.359Z,22.30
2022-08-03T06:23:19.436Z,22.50
2022-08-03T06:25:46.671Z,22.60
2022-08-03T06:28:42.470Z,22.70
2022-08-03T06:31:01.391Z,22.80
2022-08-03T06:34:30.187Z,23.10
2022-08-03T06:36:15.309Z,23.20
2022-08-03T06:38:41.932Z,23.40
2022-08-03T06:41:08.672Z,23.60
2022-08-03T06:43:37.623Z,23.70
2022-08-03T06:46:07.962Z,23.70
2022-08-03T06:48:34.569Z,23.80
2022-08-03T06:51:01.204Z,24.00
2022-08-03T06:53:27.975Z,24.10
2022-08-03T06:55:55.317Z,24.30
2022-08-03T06:58:22.649Z,24.30
2022-08-03T07:00:49.487Z,24.30
2022-08-03T07:03:16.511Z,24.30
2022-08-03T07:05:43.952Z,24.40
2022-08-03T07:08:10.801Z,24.50
2022-08-03T07:10:37.847Z,24.70
2022-08-03T07:13:05.453Z,24.70
2022-08-03T07:15:53.778Z,24.70
2022-08-03T07:18:29.081Z,24.70
2022-08-03T07:20:57.402Z,24.80
2022-08-03T07:23:25.304Z,24.80
2022-08-03T07:25:52.150Z,24.90
2022-08-03T07:28:18.961Z,25.00
2022-08-03T07:30:45.699Z,25.10
2022-08-03T07:33:12.534Z,25.30
2022-08-03T07:35:39.448Z,25.30
2022-08-03T07:38:06.105Z,25.40
2022-08-03T07:40:32.752Z,25.50
2022-08-03T07:43:00.381Z,25.60
2022-08-03T07:45:27.116Z,25.70
2022-08-03T07:47:54.458Z,25.80
2022-08-03T07:50:22.383Z,25.80
2022-08-03T07:52:51.236Z,25.90
2022-08-03T07:55:20.106Z,25.80
2022-08-03T07:57:47.092Z,26.00
2022-08-03T08:00:19.207Z,26.00
2022-08-03T08:02:46.168Z,26.20
2022-08-03T08:05:13.136Z,26.20
2022-08-03T08:07:40.216Z,26.40
2022-08-03T08:10:09.830Z,26.40
2022-08-03T08:12:37.851Z,26.60
2022-08-03T08:15:05.103Z,26.60
2022-08-03T08:17:31.831Z,26.80
2022-08-03T08:19:58.517Z,26.90
2022-08-03T08:22:30.589Z,26.90
2022-08-03T08:25:01.502Z,26.90
2022-08-03T08:27:28.421Z,27.00
2022-08-03T08:30:19.370Z,27.20
2022-08-03T08:32:47.228Z,27.30
2022-08-03T08:35:14.135Z,27.40
2022-08-03T08:37:41.626Z,27.50
2022-08-03T08:40:09.078Z,27.70
2022-08-03T08:42:40.268Z,27.60
2022-08-03T08:45:10.121Z,27.70
2022-08-03T08:47:51.409Z,27.80
2022-08-03T08:50:27.833Z,27.90
2022-08-03T08:52:55.943Z,28.10
2022-08-03T08:55:23.698Z,28.10
2022-08-03T08:57:56.848Z,28.10
2022-08-03T09:00:23.488Z,28.20
2022-08-03T09:02:50.197Z,28.20
2022-08-03T09:05:18.897Z,28.30
2022-08-03T09:07:47.113Z,28.40
2022-08-03T09:10:18.787Z,28.50
2022-08-03T09:12:47.222Z,28.60
2022-08-03T09:15:25.813Z,28.60
2022-08-03T09:17:55.418Z,28.80
2022-08-03T09:20:24.213Z,28.60
2022-08-03T09:23:19.169Z,28.50
2022-08-03T09:25:58.147Z,28.40
2022-08-03T09:29:01.681Z,28.60
2022-08-03T09:31:32.369Z,28.70
2022-08-03T09:34:05.584Z,28.60
2022-08-03T09:36:44.588Z,28.60
2022-08-03T09:39:16.863Z,28.70
2022-08-03T09:41:49.121Z,28.70
2022-08-03T09:44:25.072Z,28.60
2022-08-03T09:46:56.153Z,28.60
2022-08-03T09:49:23.509Z,28.70
2022-08-03T09:52:33.874Z,28.80
2022-08-03T09:54:37.210Z,29.00
2022-08-03T09:57:04.191Z,29.10
2022-08-03T09:59:33.302Z,29.10
2022-08-03T10:02:00.603Z,29.20
2022-08-03T10:04:27.374Z,29.30
2022-08-03T10:07:09.234Z,29.40
2022-08-03T10:09:37.135Z,29.50
2022-08-03T10:12:11.737Z,29.60
2022-08-03T10:14:39.929Z,29.70
2022-08-03T10:17:06.748Z,29.60
2022-08-03T10:19:33.706Z,29.60
2022-08-03T10:22:10.386Z,29.60
2022-08-03T10:24:39.224Z,29.70
2022-08-03T10:27:11.360Z,29.70
2022-08-03T10:29:39.672Z,29.70
2022-08-03T10:32:38.415Z,29.70
2022-08-03T10:35:20.326Z,29.90
2022-08-03T10:38:16.782Z,29.90
2022-08-03T10:40:49.520Z,29.90
2022-08-03T10:43:45.659Z,30.00
2022-08-03T10:46:15.628Z,29.80
2022-08-03T10:48:43.005Z,29.80
2022-08-03T10:51:09.981Z,29.70
2022-08-03T10:53:54.963Z,29.90
2022-08-03T10:56:53.448Z,30.30
2022-08-03T10:59:46.485Z,30.20
2022-08-03T11:02:14.365Z,30.10
2022-08-03T11:04:41.712Z,29.90
2022-08-03T11:07:17.703Z,29.90
2022-08-03T11:09:49.893Z,30.00
2022-08-03T11:12:30.623Z,30.20
2022-08-03T11:15:01.222Z,30.40
2022-08-03T11:17:28.143Z,30.20
2022-08-03T11:19:57.607Z,30.10
2022-08-03T11:22:25.564Z,30.30
2022-08-03T11:24:54.295Z,30.50
2022-08-03T11:27:23.121Z,30.20
2022-08-03T11:30:00.424Z,30.20
2022-08-03T11:32:46.569Z,30.50
2022-08-03T11:35:16.135Z,30.80
2022-08-03T11:38:03.003Z,30.60
2022-08-03T11:40:48.215Z,30.40
2022-08-03T11:43:31.288Z,30.70
2022-08-03T11:46:06.357Z,30.90
2022-08-03T11:48:39.914Z,31.00
2022-08-03T11:51:18.385Z,31.30
2022-08-03T11:53:47.665Z,31.10
2022-08-03T11:56:14.422Z,31.00
2022-08-03T11:59:16.364Z,31.20
2022-08-03T12:01:35.411Z,31.20
2022-08-03T12:04:06.705Z,31.50
2022-08-03T12:06:53.303Z,31.40
2022-08-03T12:09:21.369Z,31.40
2022-08-03T12:11:59.762Z,31.70
2022-08-03T12:14:50.503Z,31.50
2022-08-03T12:17:16.407Z,31.90
2022-08-03T12:19:43.643Z,32.30
2022-08-03T12:22:10.420Z,32.60
2022-08-03T12:24:42.313Z,32.50
2022-08-03T12:27:09.123Z,32.00
2022-08-03T12:29:36.518Z,31.80
2022-08-03T12:32:03.485Z,32.50
2022-08-03T12:34:49.043Z,32.20
2022-08-03T12:37:23.561Z,32.20
2022-08-03T12:40:02.890Z,32.50
2022-08-03T12:42:37.271Z,32.60
2022-08-03T12:45:24.392Z,32.50
2022-08-03T12:47:55.580Z,32.80
2022-08-03T12:50:27.407Z,32.70
2022-08-03T12:52:54.763Z,32.50
2022-08-03T12:55:22.759Z,32.40
2022-08-03T12:57:49.754Z,32.00
2022-08-03T13:00:28.944Z,32.30
2022-08-03T13:03:39.687Z,32.60
2022-08-03T13:05:57.333Z,32.90
2022-08-03T13:08:25.395Z,33.10
2022-08-03T13:10:52.442Z,32.80
2022-08-03T13:13:20.733Z,32.70
2022-08-03T13:15:47.643Z,32.50
2022-08-03T13:18:17.265Z,32.90
2022-08-03T13:20:44.483Z,33.40
2022-08-03T13:23:12.965Z,33.00
2022-08-03T13:25:55.185Z,33.00
2022-08-03T13:28:23.207Z,33.20
2022-08-03T13:30:49.919Z,33.30
2022-08-03T13:33:16.671Z,33.30
2022-08-03T13:35:43.348Z,33.30
2022-08-03T13:38:10.045Z,33.30
2022-08-03T13:40:42.226Z,33.20
2022-08-03T13:43:09.306Z,33.60
2022-08-03T13:45:37.053Z,33.30
2022-08-03T13:48:03.867Z,33.10
2022-08-03T13:50:31.323Z,33.10
2022-08-03T13:52:59.011Z,33.10
2022-08-03T13:55:25.754Z,33.50
2022-08-03T13:58:03.294Z,33.60
2022-08-03T14:00:33.864Z,34.20
2022-08-03T14:03:17.358Z,34.40
2022-08-03T14:05:44.467Z,34.20
2022-08-03T14:08:12.207Z,34.00
2022-08-03T14:10:43.455Z,33.80
2022-08-03T14:13:12.619Z,33.80
2022-08-03T14:15:43.831Z,34.50
2022-08-03T14:18:27.738Z,34.90
2022-08-03T14:21:00.647Z,34.90
2022-08-03T14:23:32.379Z,35.50
2022-08-03T14:25:59.804Z,35.90
2022-08-03T14:28:26.462Z,36.30
2022-08-03T14:30:54.320Z,36.30
2022-08-03T14:33:21.920Z,36.20
2022-08-03T14:35:49.222Z,35.80
2022-08-03T14:38:16.329Z,36.30
2022-08-03T14:40:43.324Z,36.60
2022-08-03T14:43:09.960Z,36.50
2022-08-03T14:45:36.702Z,36.90
2022-08-03T14:50:34.226Z,39.90
2022-08-03T14:50:52.581Z,43.50
2022-08-03T14:53:19.999Z,45.90
2022-08-03T14:55:50.648Z,46.00
2022-08-03T14:58:22.844Z,47.00
2022-08-03T15:00:50.851Z,47.30
2022-08-03T15:03:20.380Z,46.40
2022-08-03T15:05:47.328Z,46.10
2022-08-03T15:08:14.059Z,47.60
2022-08-03T15:10:45.274Z,47.80
2022-08-03T15:13:15.834Z,45.90
2022-08-03T15:15:42.821Z,46.50
2022-08-03T15:18:09.500Z,46.90
2022-08-03T15:20:44.280Z,48.60
2022-08-03T15:23:12.097Z,49.40
2022-08-03T15:26:04.057Z,48.10
2022-08-03T15:28:25.505Z,48.90
2022-08-03T15:30:52.973Z,49.80
2022-08-03T15:33:19.682Z,50.20
2022-08-03T15:35:47.391Z,47.00
2022-08-03T15:38:14.090Z,45.50
2022-08-03T15:40:40.943Z,43.20
2022-08-03T15:43:07.685Z,41.40
2022-08-03T15:45:35.346Z,39.20
2022-08-03T15:48:07.115Z,37.10
2022-08-03T15:50:34.308Z,35.80
2022-08-03T15:53:00.948Z,35.10
2022-08-03T15:55:27.701Z,35.20
2022-08-03T15:59:04.204Z,35.00
2022-08-03T16:00:42.156Z,34.90
2022-08-03T16:03:09.359Z,34.80
2022-08-03T16:05:36.264Z,34.80
2022-08-03T16:08:05.047Z,34.80
2022-08-03T16:10:33.771Z,35.20
2022-08-03T16:13:00.551Z,35.50
2022-08-03T16:15:27.559Z,37.20
2022-08-03T16:17:54.281Z,41.60
2022-08-03T16:20:31.586Z,44.90
2022-08-03T16:23:10.308Z,45.90
2022-08-03T16:25:41.601Z,47.10
2022-08-03T16:28:13.963Z,48.40
2022-08-03T16:30:43.982Z,46.10
2022-08-03T16:33:11.644Z,47.00
2022-08-03T16:35:43.832Z,49.10
2022-08-03T16:38:13.192Z,49.60
2022-08-03T16:40:43.426Z,48.80
2022-08-03T16:43:18.002Z,47.10
2022-08-03T16:45:46.728Z,48.20
2022-08-03T16:48:14.021Z,48.30
2022-08-03T16:50:40.717Z,48.10
2022-08-03T16:53:09.130Z,48.50
2022-08-03T16:55:51.693Z,43.30
2022-08-03T16:58:34.810Z,41.50
2022-08-03T17:01:21.559Z,44.40
2022-08-03T17:04:01.560Z,47.00
2022-08-03T17:06:33.931Z,48.30
2022-08-03T17:09:01.607Z,47.10
2022-08-03T17:11:32.145Z,46.80
2022-08-03T17:14:00.390Z,42.50
2022-08-03T17:16:27.234Z,42.60
2022-08-03T17:19:02.482Z,44.00
2022-08-03T17:21:32.985Z,45.10
2022-08-03T17:24:14.547Z,46.30
2022-08-03T17:26:50.080Z,46.20
2022-08-03T17:29:17.862Z,45.70
2022-08-03T17:31:48.898Z,44.90
2022-08-03T17:34:17.557Z,42.60
2022-08-03T17:39:57.607Z,42.50
2022-08-03T17:42:31.098Z,43.70
2022-08-03T17:45:07.289Z,43.80
2022-08-03T17:47:42.689Z,44.00
2022-08-03T17:50:24.256Z,44.70
2022-08-03T17:53:06.704Z,44.80
2022-08-03T17:55:57.093Z,44.40
2022-08-03T17:58:44.454Z,42.70
2022-08-03T18:02:02.630Z,42.40
2022-08-03T18:04:36.904Z,42.30
2022-08-03T18:07:12.453Z,42.70
2022-08-03T18:10:04.620Z,42.90
2022-08-03T18:12:40.022Z,41.80
2022-08-03T18:15:20.815Z,40.50
2022-08-03T18:18:01.674Z,39.10
2022-08-03T18:20:32.896Z,37.10
2022-08-03T18:23:08.921Z,35.30
2022-08-03T18:25:44.431Z,34.00
2022-08-03T18:28:16.324Z,33.20
2022-08-03T18:30:54.277Z,32.50
2022-08-03T18:34:17.132Z,32.00
2022-08-03T18:36:17.637Z,31.70
2022-08-03T18:38:49.252Z,31.30
2022-08-03T18:41:22.076Z,31.10
2022-08-03T18:44:07.039Z,30.80
2022-08-03T18:46:47.250Z,30.50
2022-08-03T18:49:37.400Z,30.00
2022-08-03T18:52:12.535Z,29.70
2022-08-03T18:55:01.182Z,29.40
2022-08-03T18:57:46.431Z,29.10
2022-08-03T19:00:17.290Z,28.90
2022-08-03T19:03:02.592Z,28.60
2022-08-03T19:05:56.266Z,28.40
2022-08-03T19:08:48.012Z,28.20
2022-08-03T19:12:14.123Z,28.00
2022-08-03T19:14:31.992Z,27.80
2022-08-03T19:17:07.293Z,27.60
2022-08-03T19:19:44.444Z,27.30
2022-08-03T19:22:16.018Z,27.20
2022-08-03T19:24:46.257Z,27.00
2022-08-03T19:27:13.553Z,26.90
2022-08-03T19:30:00.494Z,26.70
2022-08-03T19:32:30.587Z,26.60
2022-08-03T19:34:59.737Z,26.50
2022-08-03T19:37:38.389Z,26.40
2022-08-03T19:40:10.274Z,26.30
2022-08-03T19:42:42.043Z,26.20
2022-08-03T19:45:11.298Z,26.00
2022-08-03T19:47:51.557Z,26.00
2022-08-03T19:50:20.399Z,25.90
2022-08-03T19:52:49.519Z,25.90
2022-08-03T19:55:17.869Z,25.80
2022-08-03T19:57:49.314Z,25.70
2022-08-03T20:00:19.914Z,25.70
2022-08-03T20:02:47.204Z,25.60
2022-08-03T20:05:17.924Z,25.50
2022-08-03T20:07:48.072Z,25.40
2022-08-03T20:10:34.934Z,25.40
2022-08-03T20:13:02.285Z,25.20
2022-08-03T20:15:31.867Z,25.20
2022-08-03T20:17:59.576Z,25.10
2022-08-03T20:20:28.637Z,25.10
2022-08-03T20:22:59.163Z,25.10
2022-08-03T20:25:38.816Z,25.00
2022-08-03T20:28:14.290Z,25.00
2022-08-03T20:30:44.010Z,25.00
2022-08-03T20:33:11.121Z,25.00
2022-08-03T20:35:37.813Z,24.90
2022-08-03T20:38:09.242Z,24.90
2022-08-03T20:40:36.336Z,24.80
2022-08-03T20:43:04.997Z,24.70
2022-08-03T20:46:00.972Z,24.60
2022-08-03T20:48:22.179Z,24.50
2022-08-03T20:50:49.373Z,24.40
2022-08-03T20:53:56.759Z,24.30
2022-08-03T20:56:05.057Z,24.30
2022-08-03T20:58:35.469Z,24.20
2022-08-03T21:01:03.249Z,24.20
2022-08-03T21:03:40.904Z,24.10
2022-08-03T21:06:27.408Z,24.00
2022-08-03T21:09:00.208Z,23.90
2022-08-03T21:11:41.607Z,23.80
2022-08-03T21:14:18.789Z,23.70
2022-08-03T21:16:48.003Z,23.70
2022-08-03T21:19:17.262Z,23.70
2022-08-03T21:21:46.455Z,23.80
2022-08-03T21:24:13.846Z,23.80
2022-08-03T21:26:41.642Z,23.80
2022-08-03T21:29:11.478Z,23.70
2022-08-03T21:31:39.788Z,23.60
2022-08-03T21:34:06.895Z,23.50
2022-08-03T21:36:36.350Z,23.40
2022-08-03T21:39:06.151Z,23.40
2022-08-03T21:41:33.231Z,23.40
2022-08-03T21:44:00.924Z,23.30
2022-08-03T21:46:32.344Z,23.20
2022-08-03T21:50:05.077Z,23.20
2022-08-03T21:51:53.940Z,23.20
2022-08-03T21:54:21.555Z,23.10
2022-08-03T21:56:51.080Z,23.10
2022-08-03T21:59:20.096Z,23.10
2022-08-03T22:01:49.403Z,23.00
2022-08-03T22:04:50.663Z,23.00
2022-08-03T22:07:08.251Z,23.00
2022-08-03T22:09:36.681Z,23.00
2022-08-03T22:12:03.858Z,23.00
2022-08-03T22:14:33.014Z,23.00
2022-08-03T22:17:00.723Z,23.00
2022-08-03T22:19:30.226Z,23.00
2022-08-03T22:21:59.071Z,22.90
2022-08-03T22:24:28.795Z,22.90
2022-08-03T22:27:14.814Z,22.80
2022-08-03T22:29:42.997Z,22.70
2022-08-03T22:32:10.446Z,22.70
2022-08-03T22:34:37.448Z,22.60
2022-08-03T22:37:04.875Z,22.60
2022-08-03T22:39:32.271Z,22.60
2022-08-03T22:41:59.449Z,22.60
2022-08-03T22:44:27.199Z,22.60
2022-08-03T22:46:54.302Z,22.50
2022-08-03T22:49:22.070Z,22.40
2022-08-03T22:51:51.556Z,22.30
2022-08-03T22:54:18.523Z,22.30
2022-08-03T22:56:49.865Z,22.10
2022-08-03T22:59:39.968Z,22.10
2022-08-03T23:02:25.794Z,22.00
2022-08-03T23:05:01.902Z,22.00
2022-08-03T23:07:34.086Z,22.10
2022-08-03T23:10:01.241Z,22.10
2022-08-03T23:12:30.294Z,22.20
2022-08-03T23:15:01.179Z,22.30
2022-08-03T23:17:31.077Z,22.20
2022-08-03T23:20:05.260Z,22.20
2022-08-03T23:22:34.192Z,22.20
2022-08-03T23:25:03.821Z,22.20
2022-08-03T23:27:34.331Z,22.10
2022-08-03T23:30:01.960Z,22.10
2022-08-03T23:32:30.501Z,22.10
2022-08-03T23:35:18.889Z,22.10
2022-08-03T23:38:04.023Z,22.00
2022-08-03T23:40:34.951Z,21.90
2022-08-03T23:43:02.605Z,21.80
2022-08-03T23:45:31.243Z,21.70
2022-08-03T23:47:57.905Z,21.70
2022-08-03T23:50:27.692Z,21.70
2022-08-03T23:53:05.982Z,21.60
2022-08-03T23:55:44.365Z,21.60
2022-08-03T23:58:23.324Z,21.50
